Time;durP1;ratioP1;P1;durP2;ratioP2;P2;SDS_P1;SDS_P2;PMS_P1;PMS_P2;Temp;Humidity;BMP_temperature;BMP_pressure;BME280_temperature;BME280_humidity;BME280_pressure;Samples;Min_cycle;Max_cycle;Signal;HPM_P1;HPM_P2
2022/07/25 00:00:40;;;;;;;13.30;7.10;;;25.20;99.90;;;;;;5039630;28;20044;-71
2022/07/25 00:03:44;;;;;;;11.70;7.43;;;25.10;99.90;;;;;;5051882;28;20048;-71
2022/07/25 00:06:48;;;;;;;11.18;6.82;;;25.10;99.90;;;;;;5052170;28;20048;-71
2022/07/25 00:09:52;;;;;;;12.50;7.38;;;25.10;99.90;;;;;;5051820;28;20044;-71
2022/07/25 00:12:56;;;;;;;9.75;6.97;;;25.00;99.90;;;;;;5040138;28;20040;-72
2022/07/25 00:16:00;;;;;;;13.95;7.63;;;25.00;99.90;;;;;;5051803;28;20040;-71
2022/07/25 00:19:05;;;;;;;14.30;7.43;;;24.90;99.90;;;;;;5051801;28;20052;-71
2022/07/25 00:22:08;;;;;;;14.00;7.70;;;24.80;99.90;;;;;;5051917;28;20052;-71
2022/07/25 00:25:12;;;;;;;14.75;7.45;;;24.80;99.90;;;;;;5051368;28;20040;-71
2022/07/25 00:28:16;;;;;;;14.10;7.25;;;24.80;99.90;;;;;;5051828;28;20392;-71
2022/07/25 00:31:20;;;;;;;10.30;7.93;;;24.70;99.90;;;;;;5051811;28;20068;-71
2022/07/25 00:34:25;;;;;;;12.80;8.20;;;24.70;99.90;;;;;;5050982;28;20048;-72
2022/07/25 00:37:29;;;;;;;10.52;7.43;;;24.60;99.90;;;;;;5050493;28;20044;-71
2022/07/25 00:40:35;;;;;;;13.35;8.75;;;24.60;99.90;;;;;;5039343;28;20431;-71
2022/07/25 00:43:43;;;;;;;19.77;8.95;;;24.50;99.90;;;;;;5039264;28;20048;-71
2022/07/25 00:46:46;;;;;;;12.75;8.85;;;24.50;99.90;;;;;;5051768;28;20126;-71
2022/07/25 00:49:50;;;;;;;15.32;8.88;;;24.50;99.90;;;;;;5051580;28;20056;-71
2022/07/25 00:52:55;;;;;;;17.45;9.38;;;24.50;99.90;;;;;;5051221;28;20044;-71
2022/07/25 00:55:59;;;;;;;11.15;8.88;;;24.40;99.90;;;;;;5050836;28;20036;-71
2022/07/25 00:59:02;;;;;;;10.38;9.23;;;24.40;99.90;;;;;;5051439;28;20047;-71
2022/07/25 01:02:06;;;;;;;13.68;9.35;;;24.40;99.90;;;;;;5039060;28;20052;-71
2022/07/25 01:05:11;;;;;;;15.90;9.57;;;24.40;99.90;;;;;;5050785;28;20495;-71
2022/07/25 01:08:20;;;;;;;17.80;8.82;;;24.40;99.90;;;;;;5051082;28;20071;-71
2022/07/25 01:11:24;;;;;;;13.10;8.45;;;24.30;99.90;;;;;;5051360;28;20076;-72
2022/07/25 01:14:29;;;;;;;11.32;8.38;;;24.30;99.90;;;;;;5050868;28;20048;-72
2022/07/25 01:17:33;;;;;;;10.43;8.20;;;24.30;99.90;;;;;;5051180;28;20387;-71
2022/07/25 01:20:37;;;;;;;14.45;8.63;;;24.20;99.90;;;;;;5051008;28;20052;-72
2022/07/25 01:23:42;;;;;;;11.00;8.82;;;24.10;99.90;;;;;;5050769;28;20392;-72
2022/07/25 01:26:46;;;;;;;11.35;8.52;;;24.10;99.90;;;;;;5050723;28;20048;-71
2022/07/25 01:29:50;;;;;;;11.35;8.05;;;24.10;99.90;;;;;;5050718;28;20044;-71
2022/07/25 01:32:53;;;;;;;10.95;8.65;;;24.10;99.90;;;;;;5050801;28;20052;-71
2022/07/25 01:35:57;;;;;;;12.98;9.02;;;24.10;99.90;;;;;;5050770;28;20055;-71
2022/07/25 01:39:01;;;;;;;15.18;9.38;;;24.10;99.90;;;;;;5050772;28;20043;-71
2022/07/25 01:42:06;;;;;;;10.50;8.18;;;24.10;99.90;;;;;;5050917;28;20048;-72
2022/07/25 01:45:11;;;;;;;12.00;8.93;;;24.10;99.90;;;;;;5050416;28;20526;-71
2022/07/25 01:48:15;;;;;;;13.40;9.23;;;24.10;99.90;;;;;;5050560;28;20044;-71
2022/07/25 01:51:19;;;;;;;11.68;8.43;;;24.00;99.90;;;;;;5050749;28;20044;-71
2022/07/25 01:54:23;;;;;;;13.75;8.90;;;24.00;99.90;;;;;;5050249;28;20048;-71
2022/07/25 01:57:27;;;;;;;13.63;8.48;;;23.90;99.90;;;;;;5050597;28;20047;-71
2022/07/25 02:00:31;;;;;;;13.75;8.80;;;23.90;99.90;;;;;;5050466;28;20051;-71
2022/07/25 02:03:35;;;;;;;10.77;7.93;;;23.90;99.90;;;;;;5050312;28;20048;-71
2022/07/25 02:06:40;;;;;;;11.27;8.63;;;23.90;99.90;;;;;;5050411;28;20395;-71
2022/07/25 02:09:44;;;;;;;12.30;8.20;;;23.80;99.90;;;;;;5050270;28;20044;-71
2022/07/25 02:12:48;;;;;;;12.63;8.02;;;23.80;99.90;;;;;;5050738;28;20048;-71
2022/07/25 02:15:52;;;;;;;10.43;8.52;;;23.80;99.90;;;;;;5050690;28;20048;-71
2022/07/25 02:18:56;;;;;;;15.52;8.73;;;23.80;99.90;;;;;;5050196;28;20498;-72
2022/07/25 02:22:00;;;;;;;11.35;8.50;;;23.80;99.90;;;;;;5050378;28;20040;-71
2022/07/25 02:25:04;;;;;;;13.07;9.38;;;23.70;99.90;;;;;;5049938;28;20521;-71
2022/07/25 02:28:08;;;;;;;12.00;8.10;;;23.70;99.90;;;;;;5037774;28;20570;-71
2022/07/25 02:31:12;;;;;;;13.00;8.90;;;23.70;99.90;;;;;;5049859;28;20047;-72
2022/07/25 02:34:16;;;;;;;13.18;8.75;;;23.70;99.90;;;;;;5049355;28;20359;-71
2022/07/25 02:37:20;;;;;;;12.38;8.60;;;23.70;99.90;;;;;;5049983;28;20048;-71
2022/07/25 02:40:25;;;;;;;16.80;8.55;;;23.70;99.90;;;;;;5049941;28;20383;-71
2022/07/25 02:43:29;;;;;;;12.77;8.85;;;23.70;99.90;;;;;;5049999;28;20078;-72
2022/07/25 02:46:37;;;;;;;12.98;8.48;;;23.70;99.90;;;;;;5049463;28;20036;-72
2022/07/25 02:49:41;;;;;;;18.33;9.40;;;23.70;99.90;;;;;;5050091;28;20044;-71
2022/07/25 02:52:45;;;;;;;14.13;8.73;;;23.70;99.90;;;;;;5049949;28;20039;-71
2022/07/25 02:55:49;;;;;;;15.85;8.23;;;23.60;99.90;;;;;;5049961;28;20040;-71
2022/07/25 02:58:52;;;;;;;15.60;9.20;;;23.60;99.90;;;;;;5042981;28;20044;-71
2022/07/25 03:01:56;;;;;;;15.18;9.57;;;23.60;99.90;;;;;;5053387;28;20048;-71
2022/07/25 03:05:01;;;;;;;17.40;8.93;;;23.50;99.90;;;;;;5053539;28;20048;-71
2022/07/25 03:08:05;;;;;;;14.43;8.88;;;23.50;99.90;;;;;;5053442;28;20416;-71
2022/07/25 03:11:11;;;;;;;14.43;8.60;;;23.50;99.90;;;;;;5053421;28;20063;-71
2022/07/25 03:14:15;;;;;;;12.88;9.38;;;23.50;99.90;;;;;;5053068;28;20628;-71
2022/07/25 03:17:18;;;;;;;15.52;9.38;;;23.50;99.90;;;;;;5041101;28;20048;-72
2022/07/25 03:20:22;;;;;;;13.55;9.43;;;23.40;99.90;;;;;;5053134;28;20052;-72
2022/07/25 03:23:27;;;;;;;13.23;9.88;;;23.40;99.90;;;;;;5052995;28;20391;-71
2022/07/25 03:26:30;;;;;;;19.45;10.13;;;23.40;99.90;;;;;;5053098;28;20047;-71
2022/07/25 03:29:35;;;;;;;16.65;10.18;;;23.30;99.90;;;;;;5053155;28;20051;-71
2022/07/25 03:32:40;;;;;;;17.73;9.82;;;23.30;99.90;;;;;;5040530;28;20048;-71
2022/07/25 03:35:44;;;;;;;16.08;9.35;;;23.20;99.90;;;;;;5044839;28;20039;-71
2022/07/25 03:38:48;;;;;;;16.30;10.65;;;23.10;99.90;;;;;;5052672;28;20399;-71
2022/07/25 03:41:52;;;;;;;13.30;9.48;;;23.10;99.90;;;;;;5052589;28;20064;-71
2022/07/25 03:44:56;;;;;;;17.60;9.63;;;23.00;99.90;;;;;;5052681;28;20048;-71
2022/07/25 03:48:00;;;;;;;24.85;10.85;;;23.00;99.90;;;;;;5052605;28;20048;-71
2022/07/25 03:51:05;;;;;;;15.38;10.52;;;22.90;99.90;;;;;;5052338;28;20048;-71
2022/07/25 03:54:12;;;;;;;17.42;10.52;;;23.00;99.90;;;;;;5052881;28;20048;-71
2022/07/25 03:57:16;;;;;;;16.27;10.05;;;22.90;99.90;;;;;;5052207;28;20048;-71
2022/07/25 04:00:20;;;;;;;14.65;10.48;;;22.90;99.90;;;;;;5052083;28;20036;-71
2022/07/25 04:03:24;;;;;;;16.17;10.38;;;22.90;99.90;;;;;;5051909;28;20048;-71
2022/07/25 04:06:28;;;;;;;15.35;9.90;;;23.00;99.90;;;;;;5052624;28;20044;-71
2022/07/25 04:09:33;;;;;;;15.00;10.50;;;23.00;99.90;;;;;;5052246;28;20032;-71
2022/07/25 04:12:37;;;;;;;15.82;10.07;;;23.00;99.90;;;;;;5051767;28;20052;-71
2022/07/25 04:15:41;;;;;;;13.75;10.40;;;23.10;99.90;;;;;;5051926;28;20479;-72
2022/07/25 04:18:45;;;;;;;15.93;10.07;;;23.20;99.90;;;;;;5052041;28;20059;-71
2022/07/25 04:21:49;;;;;;;16.85;10.32;;;23.20;99.90;;;;;;5052095;28;20388;-72
2022/07/25 04:24:53;;;;;;;18.75;9.85;;;23.30;99.90;;;;;;5051392;28;20381;-71
2022/07/25 04:27:57;;;;;;;19.40;9.60;;;23.40;99.90;;;;;;5052060;28;20052;-71
2022/07/25 04:31:01;;;;;;;17.65;9.82;;;23.40;99.90;;;;;;5051381;28;20051;-71
2022/07/25 04:34:05;;;;;;;22.17;10.07;;;23.50;99.90;;;;;;5051021;28;20051;-71
2022/07/25 04:37:10;;;;;;;22.83;11.05;;;23.60;99.90;;;;;;5051512;28;20491;-71
2022/07/25 04:40:14;;;;;;;12.90;9.35;;;23.60;99.90;;;;;;5051225;28;20384;-71
2022/07/25 04:43:20;;;;;;;21.20;10.20;;;23.70;99.90;;;;;;5050791;28;20431;-71
2022/07/25 04:46:24;;;;;;;17.80;10.35;;;23.70;99.90;;;;;;5051682;28;20044;-71
2022/07/25 04:49:28;;;;;;;13.32;10.23;;;23.80;99.90;;;;;;5051314;28;20514;-71
2022/07/25 04:52:33;;;;;;;12.95;9.40;;;24.30;99.90;;;;;;5051503;28;20040;-71
2022/07/25 04:55:37;;;;;;;12.95;8.80;;;26.00;99.90;;;;;;5051290;28;20048;-71
2022/07/25 04:58:41;;;;;;;15.48;9.40;;;27.60;99.90;;;;;;5051068;28;20044;-71
2022/07/25 05:01:45;;;;;;;11.38;8.73;;;28.90;99.90;;;;;;5051025;28;20040;-71
2022/07/25 05:04:49;;;;;;;23.38;9.50;;;29.90;99.90;;;;;;5051063;28;20047;-71
2022/07/25 05:07:58;;;;;;;17.75;9.02;;;30.60;99.90;;;;;;5044674;28;20059;-71
2022/07/25 05:11:02;;;;;;;15.32;8.30;;;31.10;99.80;;;;;;5050862;28;20497;-71
2022/07/25 05:14:06;;;;;;;13.70;8.38;;;31.60;98.90;;;;;;5050928;28;20052;-71
2022/07/25 05:17:10;;;;;;;18.60;9.02;;;32.10;98.30;;;;;;5051180;28;20052;-71
2022/07/25 05:20:14;;;;;;;17.45;7.90;;;32.50;97.90;;;;;;5050749;28;20044;-72
2022/07/25 05:23:18;;;;;;;15.30;7.97;;;33.20;97.50;;;;;;5049194;28;20044;-72
2022/07/25 05:26:22;;;;;;;10.73;7.53;;;33.90;97.00;;;;;;5051260;28;20048;-72
2022/07/25 05:29:27;;;;;;;17.08;7.93;;;34.60;96.50;;;;;;5050681;28;20048;-72
2022/07/25 05:32:31;;;;;;;13.00;7.13;;;35.00;96.00;;;;;;5050996;28;20399;-71
2022/07/25 05:35:35;;;;;;;13.35;7.55;;;35.40;95.70;;;;;;5050392;28;20044;-72
2022/07/25 05:38:39;;;;;;;12.32;6.75;;;35.80;94.80;;;;;;5050660;28;20419;-72
2022/07/25 05:41:43;;;;;;;12.30;6.85;;;35.90;94.40;;;;;;5050439;28;20048;-71
2022/07/25 05:44:47;;;;;;;13.57;7.55;;;35.70;91.90;;;;;;5050621;28;20060;-71
2022/07/25 05:47:51;;;;;;;9.45;6.78;;;35.60;91.90;;;;;;5050677;28;20056;-71
2022/07/25 05:50:57;;;;;;;11.98;6.90;;;34.70;91.10;;;;;;5050445;28;20047;-71
2022/07/25 05:54:01;;;;;;;10.07;7.32;;;32.10;93.10;;;;;;5050041;28;20051;-71
2022/07/25 05:57:05;;;;;;;11.52;7.68;;;30.80;95.40;;;;;;5050435;28;20498;-71
2022/07/25 06:00:10;;;;;;;12.30;7.30;;;29.90;97.90;;;;;;5050634;28;20665;-71
2022/07/25 06:03:14;;;;;;;15.43;8.05;;;30.00;98.80;;;;;;5050325;28;20052;-71
2022/07/25 06:06:18;;;;;;;17.73;7.90;;;30.40;99.00;;;;;;5050389;28;20036;-71
2022/07/25 06:09:23;;;;;;;9.85;6.95;;;30.70;98.60;;;;;;5050747;28;20051;-71
2022/07/25 06:12:27;;;;;;;10.38;6.95;;;30.80;98.80;;;;;;5041778;28;20047;-72
2022/07/25 06:15:31;;;;;;;11.70;6.60;;;30.90;98.30;;;;;;5049916;28;20051;-73
2022/07/25 06:18:34;;;;;;;10.25;7.18;;;31.30;97.50;;;;;;5049609;28;20486;-71
2022/07/25 06:21:38;;;;;;;11.63;6.90;;;30.70;97.90;;;;;;5049128;28;20044;-72
2022/07/25 06:24:42;;;;;;;9.10;6.88;;;31.40;97.60;;;;;;5048321;28;20056;-72
2022/07/25 06:27:46;;;;;;;12.30;6.68;;;32.30;96.50;;;;;;5049343;28;20036;-71
2022/07/25 06:30:50;;;;;;;16.35;6.82;;;33.10;95.30;;;;;;5036419;28;20419;-72
2022/07/25 06:33:54;;;;;;;9.32;6.10;;;34.30;94.70;;;;;;5050692;28;20490;-72
2022/07/25 06:36:58;;;;;;;9.30;6.32;;;35.20;93.10;;;;;;5053453;28;20044;-72
2022/07/25 06:40:03;;;;;;;10.75;6.30;;;34.70;92.10;;;;;;5051103;28;20043;-72
2022/07/25 06:43:07;;;;;;;10.88;5.63;;;34.50;91.80;;;;;;5052196;28;20039;-72
2022/07/25 06:46:11;;;;;;;11.70;5.85;;;34.60;92.00;;;;;;5057161;28;20120;-72
2022/07/25 06:49:15;;;;;;;9.57;5.85;;;35.20;92.60;;;;;;5044526;28;20399;-72
2022/07/25 06:52:19;;;;;;;9.25;5.50;;;35.80;92.40;;;;;;5042564;28;20043;-72
2022/07/25 06:55:23;;;;;;;8.88;5.82;;;36.50;91.50;;;;;;5037774;28;20565;-73
2022/07/25 06:58:27;;;;;;;12.77;6.47;;;37.00;90.90;;;;;;5041108;28;20048;-72
2022/07/25 07:01:31;;;;;;;10.60;5.75;;;37.10;90.40;;;;;;5053723;28;20052;-72
2022/07/25 07:04:35;;;;;;;14.77;6.38;;;37.40;89.20;;;;;;5055491;28;20044;-72
2022/07/25 07:07:39;;;;;;;10.25;5.30;;;37.70;88.50;;;;;;5052699;28;20536;-72
2022/07/25 07:10:43;;;;;;;8.70;4.78;;;37.60;87.30;;;;;;5053800;28;20060;-72
2022/07/25 07:13:47;;;;;;;8.30;4.50;;;38.20;85.70;;;;;;5052376;28;20052;-72
2022/07/25 07:16:51;;;;;;;9.68;5.22;;;38.90;84.00;;;;;;5053005;28;20081;-73
2022/07/25 07:19:56;;;;;;;10.07;5.03;;;39.30;83.20;;;;;;5045656;28;20056;-72
2022/07/25 07:23:00;;;;;;;14.65;5.50;;;39.60;81.60;;;;;;5051168;28;20052;-73
2022/07/25 07:26:04;;;;;;;12.90;5.22;;;39.80;81.50;;;;;;5033638;28;20372;-73
2022/07/25 07:29:08;;;;;;;7.43;4.63;;;39.90;80.10;;;;;;5041802;28;20048;-73
2022/07/25 07:32:12;;;;;;;9.07;4.70;;;40.40;78.30;;;;;;5052643;28;20056;-72
2022/07/25 07:35:18;;;;;;;7.60;4.00;;;40.90;77.50;;;;;;5052159;28;20056;-72
2022/07/25 07:38:23;;;;;;;9.05;4.60;;;40.90;76.70;;;;;;5033588;28;20053;-72
2022/07/25 07:41:27;;;;;;;10.20;5.00;;;40.20;76.90;;;;;;5036347;28;20036;-72
2022/07/25 07:44:31;;;;;;;8.70;4.30;;;40.10;75.40;;;;;;5055852;28;20055;-72
2022/07/25 07:47:35;;;;;;;9.38;4.43;;;40.30;75.40;;;;;;5046879;28;20051;-72
2022/07/25 07:50:39;;;;;;;7.72;4.72;;;40.70;75.00;;;;;;5054933;28;20057;-73
2022/07/25 07:57:11;;;;;;;7.30;4.55;;;39.60;75.70;;;;;;5041392;28;21668;-72
2022/07/25 08:00:16;;;;;;;7.93;4.78;;;40.70;74.50;;;;;;5067404;28;20048;-72
2022/07/25 08:03:21;;;;;;;6.07;4.55;;;41.60;73.20;;;;;;5050577;28;20494;-72
2022/07/25 08:06:28;;;;;;;7.35;4.20;;;42.60;71.80;;;;;;5050934;28;20511;-72
2022/07/25 08:09:33;;;;;;;8.50;4.80;;;42.70;70.70;;;;;;5051507;28;20056;-72
2022/07/25 08:12:40;;;;;;;6.45;3.90;;;43.20;70.10;;;;;;5051724;28;20125;-72
2022/07/25 08:15:47;;;;;;;6.95;4.00;;;43.90;68.90;;;;;;5050062;28;20048;-72
2022/07/25 08:18:51;;;;;;;6.13;4.47;;;44.40;67.10;;;;;;5051351;28;20048;-72
2022/07/25 08:21:55;;;;;;;8.95;4.25;;;44.30;67.30;;;;;;5050907;28;20379;-72
2022/07/25 08:24:59;;;;;;;8.48;4.50;;;44.80;66.70;;;;;;5063385;28;20432;-72
2022/07/25 08:28:05;;;;;;;6.75;4.13;;;44.50;66.60;;;;;;5055762;28;20522;-72
2022/07/25 08:31:09;;;;;;;9.70;4.60;;;44.80;66.70;;;;;;5049569;28;20051;-72
2022/07/25 08:34:13;;;;;;;8.30;4.10;;;45.50;65.10;;;;;;5050496;28;20060;-72
2022/07/25 08:37:17;;;;;;;9.65;4.22;;;46.00;63.70;;;;;;5045223;28;20040;-72
2022/07/25 08:40:24;;;;;;;8.40;4.32;;;46.10;63.60;;;;;;5040849;28;20483;-72
2022/07/25 08:43:32;;;;;;;8.95;4.28;;;46.60;63.20;;;;;;5045808;28;20497;-72
2022/07/25 08:46:39;;;;;;;7.40;3.97;;;46.30;63.00;;;;;;5050410;28;20392;-72
2022/07/25 08:49:44;;;;;;;6.43;4.25;;;44.40;64.20;;;;;;5050234;28;20048;-72
2022/07/25 08:52:50;;;;;;;7.60;4.50;;;44.20;63.10;;;;;;5047726;28;20036;-71
2022/07/25 08:55:54;;;;;;;11.65;4.50;;;44.50;62.80;;;;;;5036285;28;20044;-72
2022/07/25 08:58:58;;;;;;;6.28;4.82;;;44.30;62.70;;;;;;5046137;28;20040;-72
2022/07/25 09:02:05;;;;;;;5.35;3.97;;;45.00;62.40;;;;;;5048937;28;20464;-72
2022/07/25 09:05:10;;;;;;;8.77;5.00;;;45.10;61.60;;;;;;5049241;28;20044;-72
2022/07/25 09:08:16;;;;;;;26.15;6.18;;;44.70;61.80;;;;;;5050754;28;20044;-72
2022/07/25 09:11:37;;;;;;;8.90;4.97;;;45.60;61.70;;;;;;5044364;28;20040;-72
2022/07/25 09:14:42;;;;;;;7.68;4.50;;;46.90;60.10;;;;;;5047751;28;20052;-72
2022/07/25 09:17:51;;;;;;;10.65;4.28;;;47.60;60.80;;;;;;5047908;28;20499;-72
2022/07/25 09:20:58;;;;;;;7.07;4.50;;;47.40;60.00;;;;;;5048326;28;20048;-72
2022/07/25 09:24:11;;;;;;;9.88;4.32;;;48.80;60.00;;;;;;5047070;28;20278;-72
2022/07/25 09:27:17;;;;;;;7.90;4.65;;;49.30;59.10;;;;;;5048589;28;20044;-72
2022/07/25 09:30:22;;;;;;;7.65;4.30;;;48.50;58.80;;;;;;5046896;28;20590;-72
2022/07/25 09:33:28;;;;;;;6.55;4.25;;;47.70;60.00;;;;;;5040949;28;20704;-72
2022/07/25 09:36:32;;;;;;;7.40;4.55;;;49.00;59.20;;;;;;5037791;28;20052;-72
2022/07/25 09:39:39;;;;;;;6.97;4.57;;;49.90;57.90;;;;;;5048007;28;20047;-71
2022/07/25 09:42:49;;;;;;;8.55;4.55;;;51.20;57.20;;;;;;5046602;28;20043;-72
2022/07/25 09:45:57;;;;;;;7.15;3.90;;;52.30;56.00;;;;;;5042482;28;20484;-73
2022/07/25 09:49:01;;;;;;;8.25;4.13;;;53.40;55.00;;;;;;5048592;28;20047;-72
2022/07/25 09:52:09;;;;;;;8.20;4.20;;;53.30;53.80;;;;;;5046031;28;20048;-72
2022/07/25 09:55:15;;;;;;;11.60;4.07;;;53.30;53.50;;;;;;5048460;28;20506;-72
2022/07/25 09:58:19;;;;;;;6.82;3.70;;;53.90;53.50;;;;;;5041793;28;20616;-73
2022/07/25 10:01:38;;;;;;;7.50;4.38;;;53.50;53.70;;;;;;5039342;28;20044;-73
2022/07/25 10:05:08;;;;;;;6.28;3.30;;;52.70;52.60;;;;;;5043206;28;20419;-72
2022/07/25 10:08:12;;;;;;;6.72;3.80;;;52.20;53.70;;;;;;5048742;28;20388;-73
2022/07/25 10:11:22;;;;;;;7.82;3.95;;;53.20;53.30;;;;;;5053411;28;20036;-72
2022/07/25 10:14:26;;;;;;;8.60;3.83;;;53.90;53.40;;;;;;5053166;28;20040;-72
2022/07/25 10:17:30;;;;;;;6.15;3.95;;;54.10;52.90;;;;;;5053840;28;20411;-72
2022/07/25 10:20:34;;;;;;;10.18;3.80;;;54.50;52.60;;;;;;5053424;28;20052;-72
2022/07/25 10:23:38;;;;;;;8.00;3.78;;;54.30;52.50;;;;;;5052753;28;20036;-72
2022/07/25 10:26:52;;;;;;;10.32;3.80;;;53.70;52.30;;;;;;5052060;28;20040;-72
2022/07/25 10:29:59;;;;;;;6.43;3.40;;;53.30;52.90;;;;;;5048872;28;20056;-72
2022/07/25 10:33:12;;;;;;;9.37;3.90;;;52.80;53.10;;;;;;5061101;28;20052;-72
2022/07/25 10:36:18;;;;;;;6.25;3.60;;;53.30;52.70;;;;;;5053494;28;20460;-72
2022/07/25 10:39:22;;;;;;;7.60;3.90;;;52.60;52.70;;;;;;5057028;28;20486;-72
2022/07/25 10:42:32;;;;;;;6.75;4.00;;;52.10;53.40;;;;;;5033361;28;20396;-72
2022/07/25 10:45:56;;;;;;;6.38;3.90;;;52.40;53.60;;;;;;5054620;28;20402;-72
2022/07/25 10:49:06;;;;;;;7.13;3.78;;;52.70;53.50;;;;;;5052797;28;20056;-72
2022/07/25 10:52:18;;;;;;;9.07;3.60;;;53.20;53.40;;;;;;5053041;28;20044;-72
2022/07/25 10:55:22;;;;;;;11.90;4.00;;;53.70;52.70;;;;;;5052856;28;20361;-72
2022/07/25 10:58:26;;;;;;;9.10;4.30;;;53.50;52.40;;;;;;5052675;28;20490;-72
2022/07/25 11:01:35;;;;;;;9.38;3.80;;;54.00;52.30;;;;;;5049547;28;20036;-72
2022/07/25 11:04:39;;;;;;;8.85;3.88;;;53.70;52.70;;;;;;5035292;28;20419;-72
2022/07/25 11:07:55;;;;;;;6.57;3.90;;;53.50;52.90;;;;;;5044958;28;20404;-72
2022/07/25 11:10:58;;;;;;;8.38;4.28;;;51.50;53.20;;;;;;5047173;28;20044;-71
2022/07/25 11:14:03;;;;;;;8.88;4.30;;;51.40;53.80;;;;;;5046068;28;20379;-72
2022/07/25 11:17:21;;;;;;;7.13;4.30;;;49.70;53.80;;;;;;5051350;28;20483;-72
2022/07/25 11:20:25;;;;;;;10.38;4.82;;;49.10;55.30;;;;;;5048895;28;20052;-72
2022/07/25 11:23:29;;;;;;;6.82;4.68;;;47.90;56.20;;;;;;5044108;28;20498;-72
2022/07/25 11:26:52;;;;;;;7.00;4.05;;;49.50;55.80;;;;;;5045702;28;20503;-72
2022/07/25 11:30:08;;;;;;;9.25;3.95;;;50.00;54.60;;;;;;5049530;28;20048;-72
2022/07/25 11:33:15;;;;;;;7.00;4.05;;;49.90;55.10;;;;;;5055044;28;20036;-72
2022/07/25 11:36:19;;;;;;;4.93;4.07;;;50.20;54.90;;;;;;5053683;28;20490;-72
2022/07/25 11:39:29;;;;;;;5.63;3.67;;;50.90;55.10;;;;;;5050758;28;20044;-72
2022/07/25 11:42:48;;;;;;;11.60;4.30;;;50.70;54.50;;;;;;5049744;28;20052;-74
2022/07/25 11:45:57;;;;;;;7.00;4.40;;;46.70;56.20;;;;;;5056776;28;20052;-72
2022/07/25 11:49:04;;;;;;;8.38;4.75;;;48.00;56.80;;;;;;5046225;28;20036;-73
2022/07/25 11:52:28;;;;;;;9.80;4.70;;;48.20;56.50;;;;;;5050906;28;20055;-72
2022/07/25 11:55:41;;;;;;;7.00;4.95;;;49.10;55.50;;;;;;5045257;28;20044;-72
2022/07/25 11:58:59;;;;;;;7.75;4.32;;;49.70;55.10;;;;;;5048275;28;20048;-73
2022/07/25 12:02:03;;;;;;;10.10;4.43;;;49.30;55.30;;;;;;5051836;28;20048;-73
2022/07/25 12:05:10;;;;;;;10.88;4.90;;;49.10;55.50;;;;;;5046692;28;20080;-73
2022/07/25 12:08:19;;;;;;;14.52;4.85;;;49.50;55.40;;;;;;5045350;28;20039;-72
2022/07/25 12:11:23;;;;;;;8.68;5.00;;;49.70;55.20;;;;;;5051569;28;20047;-72
2022/07/25 12:14:27;;;;;;;7.75;4.78;;;49.20;55.10;;;;;;5053492;28;20040;-72
2022/07/25 12:17:31;;;;;;;9.65;5.03;;;49.30;55.10;;;;;;5038697;28;20387;-71
2022/07/25 12:20:41;;;;;;;10.38;4.93;;;48.90;55.40;;;;;;5047737;28;20048;-72
2022/07/25 12:23:46;;;;;;;11.95;5.13;;;48.20;56.20;;;;;;5039856;28;20064;-74
2022/07/25 12:26:50;;;;;;;10.38;5.22;;;45.00;56.70;;;;;;5041192;28;20048;-72
2022/07/25 12:29:54;;;;;;;23.35;6.85;;;45.30;58.50;;;;;;5048597;28;20068;-72
2022/07/25 12:32:58;;;;;;;9.10;5.85;;;45.90;57.80;;;;;;5044896;28;20040;-71
2022/07/25 12:36:03;;;;;;;8.85;5.40;;;46.50;57.70;;;;;;5051891;28;20474;-71
2022/07/25 12:39:07;;;;;;;12.40;5.53;;;47.20;57.00;;;;;;5046882;28;20048;-72
2022/07/25 12:42:11;;;;;;;10.35;5.25;;;48.00;56.10;;;;;;5042064;28;20040;-71
2022/07/25 12:45:16;;;;;;;8.07;4.95;;;45.90;57.30;;;;;;5051258;28;20048;-72
2022/07/25 12:48:20;;;;;;;11.82;5.60;;;44.70;57.90;;;;;;5033775;28;20067;-73
2022/07/25 12:51:24;;;;;;;14.32;5.78;;;43.70;59.60;;;;;;5041508;28;20032;-71
2022/07/25 12:54:29;;;;;;;12.02;6.15;;;42.70;60.60;;;;;;5048706;28;20399;-71
2022/07/25 12:57:37;;;;;;;10.05;5.40;;;43.60;60.30;;;;;;5055127;28;20064;-72
2022/07/25 13:00:41;;;;;;;11.57;5.78;;;44.30;59.30;;;;;;5046874;28;20518;-72
2022/07/25 13:03:46;;;;;;;7.68;5.72;;;44.50;58.90;;;;;;5043280;28;20048;-72
2022/07/25 13:06:50;;;;;;;9.27;6.45;;;43.30;59.10;;;;;;5032051;28;20044;-72
2022/07/25 13:09:54;;;;;;;14.88;6.20;;;42.50;60.70;;;;;;5045687;28;20483;-72
2022/07/25 13:12:59;;;;;;;10.50;6.43;;;41.90;61.40;;;;;;5048720;28;20040;-72
2022/07/25 13:16:04;;;;;;;8.38;5.78;;;42.50;60.90;;;;;;5050244;28;20040;-71
2022/07/25 13:19:08;;;;;;;6.18;5.40;;;43.40;60.40;;;;;;5036008;28;20392;-72
2022/07/25 13:22:12;;;;;;;15.15;6.65;;;43.90;59.40;;;;;;5050436;28;20510;-73
2022/07/25 13:25:17;;;;;;;14.35;6.03;;;44.00;58.90;;;;;;5049701;28;20458;-72
2022/07/25 13:28:21;;;;;;;7.95;5.70;;;43.80;59.30;;;;;;5047490;28;20040;-71
2022/07/25 13:31:26;;;;;;;13.63;6.82;;;42.90;60.10;;;;;;5045950;28;20044;-70
2022/07/25 13:34:29;;;;;;;9.73;5.97;;;42.10;60.30;;;;;;5047375;28;20052;-72
2022/07/25 13:37:35;;;;;;;9.25;6.00;;;41.70;61.30;;;;;;5035609;28;20032;-73
2022/07/25 13:40:40;;;;;;;10.52;6.32;;;41.20;62.40;;;;;;5049616;28;20036;-72
2022/07/25 13:43:44;;;;;;;12.57;6.43;;;40.80;62.50;;;;;;5051615;28;20052;-74
2022/07/25 13:46:49;;;;;;;11.98;6.60;;;41.40;62.90;;;;;;5052123;28;20044;-69
2022/07/25 13:49:53;;;;;;;11.50;6.22;;;41.20;62.50;;;;;;5047961;28;20060;-74
2022/07/25 13:52:59;;;;;;;12.38;6.03;;;40.70;62.90;;;;;;5047603;28;20051;-73
2022/07/25 13:56:03;;;;;;;16.98;6.80;;;40.20;63.20;;;;;;5047780;28;20048;-72
2022/07/25 13:59:08;;;;;;;10.63;6.38;;;39.80;64.60;;;;;;5048915;28;20396;-72
2022/07/25 14:02:13;;;;;;;8.77;5.95;;;40.70;64.30;;;;;;5048558;28;20048;-72
2022/07/25 14:05:17;;;;;;;9.60;6.85;;;41.40;63.40;;;;;;5049286;28;20060;-73
2022/07/25 14:08:21;;;;;;;10.63;6.47;;;41.50;63.00;;;;;;5043171;28;20048;-72
2022/07/25 14:11:25;;;;;;;10.93;5.90;;;41.80;62.70;;;;;;5049340;28;20044;-72
2022/07/25 14:14:29;;;;;;;12.55;7.05;;;42.10;63.30;;;;;;5050133;28;20056;-72
2022/07/25 14:17:33;;;;;;;14.73;7.28;;;42.50;63.30;;;;;;5044246;28;20032;-73
2022/07/25 14:20:38;;;;;;;15.68;6.65;;;42.60;62.90;;;;;;5050025;28;20076;-72
2022/07/25 14:23:42;;;;;;;11.48;6.95;;;42.50;62.50;;;;;;5049133;28;20048;-72
2022/07/25 14:26:47;;;;;;;10.65;7.32;;;42.30;62.30;;;;;;5048565;28;20036;-70
2022/07/25 14:29:52;;;;;;;10.52;7.20;;;42.00;63.20;;;;;;5048705;28;20052;-72
2022/07/25 14:32:56;;;;;;;9.73;6.70;;;42.10;63.20;;;;;;5049598;28;20048;-72
2022/07/25 14:36:01;;;;;;;14.02;6.63;;;41.60;64.80;;;;;;5048515;28;20040;-73
2022/07/25 14:39:04;;;;;;;16.98;7.40;;;41.30;66.40;;;;;;5048911;28;20043;-72
2022/07/25 14:42:10;;;;;;;12.13;7.28;;;41.00;66.60;;;;;;5048754;28;20052;-72
2022/07/25 14:45:15;;;;;;;12.73;6.50;;;40.40;67.30;;;;;;5050211;28;20040;-73
2022/07/25 14:48:19;;;;;;;15.52;7.22;;;40.20;68.00;;;;;;5036163;28;20044;-72
2022/07/25 14:51:24;;;;;;;10.50;6.65;;;39.90;68.80;;;;;;5042608;28;20048;-72
2022/07/25 14:54:28;;;;;;;9.88;7.03;;;40.00;69.10;;;;;;5029389;28;20040;-72
2022/07/25 14:57:35;;;;;;;11.50;7.03;;;40.00;68.40;;;;;;5049826;28;20102;-70
2022/07/25 15:00:41;;;;;;;15.63;6.75;;;40.00;68.80;;;;;;5033417;28;20069;-72
2022/07/25 15:03:46;;;;;;;15.70;7.03;;;40.00;68.50;;;;;;5049686;28;20044;-71
2022/07/25 15:06:51;;;;;;;13.57;6.63;;;39.60;68.80;;;;;;5051780;28;20036;-73
2022/07/25 15:09:56;;;;;;;12.98;6.50;;;39.40;69.20;;;;;;5051968;28;20120;-70
2022/07/25 15:13:00;;;;;;;10.23;6.38;;;39.20;69.60;;;;;;5051815;28;20059;-72
2022/07/25 15:16:06;;;;;;;14.93;6.88;;;39.20;69.70;;;;;;5041066;28;20051;-72
2022/07/25 15:19:10;;;;;;;14.38;6.22;;;39.00;69.80;;;;;;5047012;28;20060;-70
2022/07/25 15:22:14;;;;;;;10.88;6.40;;;38.60;70.50;;;;;;5045725;28;20040;-72
2022/07/25 15:25:18;;;;;;;13.75;6.63;;;38.40;70.80;;;;;;5046298;28;20036;-72
2022/07/25 15:28:23;;;;;;;11.73;6.80;;;38.40;71.00;;;;;;5053337;28;20052;-74
2022/07/25 15:31:27;;;;;;;10.63;6.30;;;38.30;70.80;;;;;;5043508;28;20041;-72
2022/07/25 15:34:32;;;;;;;13.60;6.93;;;38.20;70.90;;;;;;5054490;28;20498;-72
2022/07/25 15:37:36;;;;;;;10.90;6.93;;;38.10;71.00;;;;;;5050230;28;20040;-72
2022/07/25 15:40:41;;;;;;;17.20;7.63;;;37.70;71.50;;;;;;5048450;28;20052;-72
2022/07/25 15:43:45;;;;;;;13.23;7.35;;;37.10;72.40;;;;;;5047968;28;20060;-72
2022/07/25 15:46:49;;;;;;;10.30;6.82;;;37.10;72.80;;;;;;5048968;28;20039;-72
2022/07/25 15:49:54;;;;;;;8.40;6.45;;;37.50;72.10;;;;;;5057760;28;20387;-72
2022/07/25 15:52:58;;;;;;;12.73;6.82;;;37.60;71.80;;;;;;5055159;28;20056;-73
2022/07/25 15:56:03;;;;;;;13.27;7.03;;;37.30;70.90;;;;;;5044831;28;20036;-72
2022/07/25 15:59:07;;;;;;;12.68;7.28;;;37.00;71.80;;;;;;5051616;28;20039;-72